Guide — WDE7328 — position and weather

sailwx.info

Track history (hours):
 
Tides and Currents Weather Stations Pressure Air Temp Water Temp Dewpoint Dewpoint Depression Visibility Wind Speed Wind Dir Waves Ship Positions

Guide

Owner: CROWLEY MARINE SERVICES INC, SEATTLE, WA. More information available from US FCC via Universal Licensing System and Coast Guard Vessel Documentation Center.

Last reported at 2015-Jan-25 13:33 UTC. Time now 2015-Jan-25 14:23 UTC.
Position N 47°15' W 122°26'.

Length 34 m; draft 5.1 m.

Type: Tug. MMSI: 366759530.

Date/timePositionNaut miles runAvg speedWind from/ knotsBaromVisibWave heightAir tempDewpointWater temp
2015-Jan-25 13:33N 47°15' W 122°26'0 0.0
2015-Jan-25 12:33N 47°15' W 122°26'0 0.0
2015-Jan-25 11:33N 47°15' W 122°26'0 0.0
2015-Jan-25 10:33N 47°15' W 122°26'0 0.0
2015-Jan-25 09:33N 47°15' W 122°26'0 0.0
2015-Jan-25 08:33N 47°15' W 122°26'0 0.0
2015-Jan-25 07:33N 47°15' W 122°26'0 0.0
2015-Jan-25 06:33N 47°15' W 122°26'0 0.0
2015-Jan-25 05:31N 47°15' W 122°26'1 1.2
2015-Jan-25 04:33N 47°16' W 122°25'2 1.8
2015-Jan-25 03:33N 47°15' W 122°23'2 1.6
2015-Jan-25 02:33N 47°16' W 122°24'1 1.4
2015-Jan-25 01:33N 47°15' W 122°23'0 0.2
2015-Jan-25 00:33N 47°15' W 122°23'2 2.1
2015-Jan-24 23:32N 47°15' W 122°26'0 0.0
2015-Jan-24 22:33N 47°15' W 122°26'0 0.0
2015-Jan-24 21:33N 47°15' W 122°26'0 0.0
2015-Jan-24 20:33N 47°15' W 122°26'0 0.0
2015-Jan-24 19:33N 47°15' W 122°26'0 0.0
2015-Jan-24 18:33N 47°15' W 122°26'0 0.0
2015-Jan-24 17:33N 47°15' W 122°26'0 0.0
2015-Jan-24 16:33N 47°15' W 122°26'0 0.0
2015-Jan-24 15:33N 47°15' W 122°26'0 0.0
2015-Jan-24 14:33N 47°15' W 122°26'0 0.0
2015-Jan-24 13:33N 47°15' W 122°26'0 0.0
2015-Jan-24 12:33N 47°15' W 122°26'0 0.0
2015-Jan-24 11:33N 47°15' W 122°26'0 0.0
2015-Jan-24 10:33N 47°15' W 122°26'2 2.0
2015-Jan-24 09:32N 47°17' W 122°24'1 1.4
2015-Jan-24 08:33N 47°17' W 122°25'0 0.3
2015-Jan-24 07:33N 47°18' W 122°26'0 0.0
2015-Jan-24 06:33N 47°18' W 122°26'0 0.0
2015-Jan-24 05:33N 47°18' W 122°26'0 0.0
2015-Jan-24 04:31N 47°18' W 122°26'0 0.0
2015-Jan-24 03:33N 47°18' W 122°26'1 1.4
2015-Jan-24 02:33N 47°17' W 122°25'1 1.0
2015-Jan-24 01:33N 47°16' W 122°24'2 2.1
2015-Jan-24 00:33N 47°17' W 122°26'2 2.2
2015-Jan-23 23:33N 47°15' W 122°26'0 0.0
2015-Jan-23 22:33N 47°15' W 122°26'0 0.0
2015-Jan-23 21:33N 47°15' W 122°26'0 0.0
2015-Jan-23 20:33N 47°15' W 122°26'0 0.0
2015-Jan-23 19:33N 47°15' W 122°26'0 0.0
2015-Jan-23 18:33N 47°15' W 122°26'0 0.0
2015-Jan-23 17:33N 47°15' W 122°26'0 0.0
2015-Jan-23 16:33N 47°15' W 122°26'0 0.0
2015-Jan-23 15:33N 47°15' W 122°26'2 1.7
2015-Jan-23 14:31N 47°16' W 122°24'1 0.7
2015-Jan-23 13:33N 47°16' W 122°24'0 0.3
2015-Jan-23 12:32N 47°16' W 122°24'0 0.0
2015-Jan-23 11:28N 47°16' W 122°24'0 0.0
2015-Jan-23 10:27N 47°16' W 122°24'0 0.0
2015-Jan-23 09:33N 47°16' W 122°24'0 0.0
2015-Jan-23 08:33N 47°16' W 122°24'0 0.0
2015-Jan-23 07:30N 47°16' W 122°24'0 0.0
2015-Jan-23 06:17N 47°16' W 122°24'0 0.0
2015-Jan-23 05:24N 47°16' W 122°24'0 0.0
2015-Jan-23 03:33N 47°16' W 122°24'0 0.2
2015-Jan-23 02:33N 47°16' W 122°24'0 0.5
2015-Jan-23 01:33N 47°16' W 122°23'2 1.9
2015-Jan-23 00:33N 47°15' W 122°26'0 0.0
2015-Jan-22 23:33N 47°15' W 122°26'0 0.0
2015-Jan-22 22:33N 47°15' W 122°26'0 0.0
2015-Jan-22 21:33N 47°15' W 122°26'0 0.0
2015-Jan-22 20:33N 47°15' W 122°26'0 0.0
2015-Jan-22 19:33N 47°15' W 122°26'0 0.0
2015-Jan-22 18:33N 47°15' W 122°26'0 0.0
2015-Jan-22 17:33N 47°15' W 122°26'2 1.8
2015-Jan-22 16:33N 47°16' W 122°24'1 1.3
2015-Jan-22 15:33N 47°17' W 122°25'1 1.1
2015-Jan-22 14:33N 47°18' W 122°26'0 0.0
2015-Jan-22 13:33N 47°18' W 122°26'2 1.8
2015-Jan-22 12:33N 47°16' W 122°24'1 0.5
2015-Jan-22 11:33N 47°16' W 122°24'0 0.5
2015-Jan-22 10:33N 47°16' W 122°24'0 0.0
2015-Jan-22 09:32N 47°16' W 122°24'0 0.0
2015-Jan-22 08:33N 47°16' W 122°24'0 0.0
2015-Jan-22 07:17N 47°16' W 122°24'0 0.0
2015-Jan-22 06:29N 47°16' W 122°24'0 0.0
2015-Jan-22 05:28N 47°16' W 122°24'0 0.0
2015-Jan-22 04:33N 47°16' W 122°24'1 1.2
2015-Jan-22 03:33N 47°15' W 122°23'3 2.9
2015-Jan-22 02:33N 47°17' W 122°26'3 3.0
2015-Jan-22 01:33N 47°15' W 122°23'2 2.2
2015-Jan-22 00:33N 47°15' W 122°26'0 0.0
2015-Jan-21 23:33N 47°15' W 122°26'0 0.0
2015-Jan-21 22:50N 47°15' W 122°26'0 0.0
2015-Jan-21 22:46N 47°15' W 122°26'0 0.0
2015-Jan-21 22:33N 47°15' W 122°26'0 0.0
2015-Jan-21 21:33N 47°15' W 122°26'2 2.1
2015-Jan-21 20:33N 47°16' W 122°23'2 2.2
2015-Jan-21 19:33N 47°17' W 122°25'1 0.6
2015-Jan-21 18:33N 47°18' W 122°26'0 0.0
2015-Jan-21 17:33N 47°18' W 122°26'0 0.0
2015-Jan-21 16:33N 47°18' W 122°26'0 0.0
2015-Jan-21 15:33N 47°18' W 122°26'0 0.0
2015-Jan-21 14:33N 47°18' W 122°26'0 0.0
2015-Jan-21 13:33N 47°18' W 122°26'0 0.0
2015-Jan-21 12:53N 47°18' W 122°26'0 0.0
2015-Jan-21 12:33N 47°18' W 122°26'3 2.9
2015-Jan-21 11:33N 47°16' W 122°23'3 2.9
2015-Jan-21 10:33N 47°17' W 122°26'0 0.3
2015-Jan-21 09:33N 47°18' W 122°26'0 0.0
2015-Jan-21 08:33N 47°18' W 122°26'0 0.0
2015-Jan-21 07:33N 47°18' W 122°26'0 0.0
2015-Jan-21 07:27N 47°18' W 122°26'0 0.0
2015-Jan-21 06:33N 47°18' W 122°26'6 5.9
2015-Jan-21 05:33N 47°23' W 122°22'9 9.7
2015-Jan-21 04:40N 47°31' W 122°25'1 6.7
2015-Jan-21 04:33N 47°32' W 122°25'4 4.0
2015-Jan-21 03:33N 47°35' W 122°21'0 1.4
2015-Jan-21 03:18N 47°35' W 122°21'0 0.3
2015-Jan-21 02:33N 47°35' W 122°21'0 0.0
2015-Jan-21 02:28N 47°35' W 122°21'0 0.0
2015-Jan-21 01:33N 47°35' W 122°21'0 0.0
2015-Jan-21 01:33N 47°35' W 122°21'0 0.0
2015-Jan-21 00:33N 47°35' W 122°21'0 0.0
2015-Jan-21 00:32N 47°35' W 122°21'0 0.0
2015-Jan-20 23:33N 47°35' W 122°21'0 0.0
2015-Jan-20 23:32N 47°35' W 122°21'0 0.0
2015-Jan-20 22:33N 47°35' W 122°21'0 0.0
2015-Jan-20 22:33N 47°35' W 122°21'0 0.0
2015-Jan-20 21:33N 47°35' W 122°21'0 0.0
2015-Jan-20 21:06N 47°35' W 122°21'0 0.0
2015-Jan-20 20:33N 47°35' W 122°21'0 0.0
2015-Jan-20 20:31N 47°35' W 122°21'0 0.0
2015-Jan-20 19:33N 47°35' W 122°21'0 0.0
2015-Jan-20 19:31N 47°35' W 122°21'0 0.0
2015-Jan-20 18:33N 47°35' W 122°21'0 0.0
2015-Jan-20 18:31N 47°35' W 122°21'0 0.0
2015-Jan-20 17:33N 47°35' W 122°21'0 0.0
2015-Jan-20 17:30N 47°35' W 122°21'0 0.0
2015-Jan-20 16:33N 47°35' W 122°21'0 0.0
2015-Jan-20 16:31N 47°35' W 122°21'0 0.0
2015-Jan-20 15:33N 47°35' W 122°21'0 0.0
2015-Jan-20 15:30N 47°35' W 122°21'0 0.0
2015-Jan-20 14:33N 47°35' W 122°21'0 0.0
2015-Jan-20 14:30N 47°35' W 122°21'0 0.0
2015-Jan-20 13:33N 47°35' W 122°21'0 0.0
2015-Jan-20 13:14N 47°35' W 122°21'0 0.0
2015-Jan-20 12:33N 47°35' W 122°21'0 0.0
2015-Jan-20 12:30N 47°35' W 122°21'0 0.0
2015-Jan-20 11:33N 47°35' W 122°21'0 0.0
2015-Jan-20 11:29N 47°35' W 122°21'0 0.0
2015-Jan-20 10:33N 47°35' W 122°21'0 0.0
2015-Jan-20 10:07N 47°35' W 122°21'0 0.0
2015-Jan-20 09:33N 47°35' W 122°21'0 0.0
2015-Jan-20 09:32N 47°35' W 122°21'0 0.0
2015-Jan-20 08:33N 47°35' W 122°21'0 0.0
2015-Jan-20 08:32N 47°35' W 122°21'0 0.0
2015-Jan-20 07:33N 47°35' W 122°21'0 0.0
2015-Jan-20 07:32N 47°35' W 122°21'0 0.0
2015-Jan-20 06:52N 47°35' W 122°21'0 0.0
2015-Jan-20 06:33N 47°35' W 122°21'0 0.0
2015-Jan-20 05:33N 47°35' W 122°21'0 0.0
2015-Jan-20 05:32N 47°35' W 122°21'0 0.0
2015-Jan-20 04:33N 47°35' W 122°21'0 0.0
2015-Jan-20 04:11N 47°35' W 122°21'0 0.0
2015-Jan-20 03:33N 47°35' W 122°21'0 0.0
2015-Jan-20 03:31N 47°35' W 122°21'0 0.0
2015-Jan-20 02:33N 47°35' W 122°21'0 0.0
2015-Jan-20 02:31N 47°35' W 122°21'2 2.2
2015-Jan-20 01:33N 47°37' W 122°22'0 0.0
2015-Jan-20 01:30N 47°37' W 122°22'1 1.5
2015-Jan-20 00:34N 47°36' W 122°22'0 0.5
2015-Jan-20 00:31N 47°36' W 122°22'0 0.1
2015-Jan-19 23:33N 47°36' W 122°22'0 2.9
2015-Jan-19 23:30N 47°36' W 122°23'8 8.0
2015-Jan-19 22:33N 47°29' W 122°24'8 8.6
2015-Jan-19 21:35N 47°20' W 122°25'010.1
2015-Jan-19 21:33N 47°20' W 122°26'5 4.8
2015-Jan-19 20:33N 47°15' W 122°26'0 0.0
2015-Jan-19 19:33N 47°15' W 122°26'0 0.0
2015-Jan-19 18:33N 47°15' W 122°26'0 0.0
2015-Jan-19 17:33N 47°15' W 122°26'0 0.0
2015-Jan-19 16:33N 47°15' W 122°26'0 0.0
2015-Jan-19 15:33N 47°15' W 122°26'0 0.0
2015-Jan-19 14:33N 47°15' W 122°26'0 0.0
2015-Jan-19 13:33N 47°15' W 122°26'0 0.0
2015-Jan-19 12:33N 47°15' W 122°26'0 0.0
2015-Jan-19 11:33N 47°15' W 122°26'0 0.0
2015-Jan-19 10:33N 47°15' W 122°26'0 0.0
2015-Jan-19 09:33N 47°15' W 122°26'0 0.0
2015-Jan-19 08:33N 47°15' W 122°26'0 0.0
2015-Jan-19 07:33N 47°15' W 122°26'0 0.0
2015-Jan-19 06:33N 47°15' W 122°26'0 0.0
2015-Jan-19 05:33N 47°15' W 122°26'0 0.0
2015-Jan-19 04:33N 47°15' W 122°26'0 0.0
2015-Jan-19 03:33N 47°15' W 122°26'0 0.0
2015-Jan-19 02:33N 47°15' W 122°26'0 0.0
2015-Jan-19 01:33N 47°15' W 122°26'2 1.7
2015-Jan-19 00:39N 47°17' W 122°25'1 5.5
2015-Jan-19 00:33N 47°17' W 122°25'0 0.4
2015-Jan-18 23:32N 47°16' W 122°24'0 0.1
2015-Jan-18 22:33N 47°16' W 122°24'0 0.0
2015-Jan-18 21:33N 47°16' W 122°24'0 0.0
2015-Jan-18 20:33N 47°16' W 122°24'0 0.0
2015-Jan-18 19:33N 47°16' W 122°24'0 0.0
2015-Jan-18 18:32N 47°16' W 122°24'0 0.0
2015-Jan-18 17:30N 47°16' W 122°24'0 0.0
2015-Jan-18 16:33N 47°16' W 122°24'1 1.4
2015-Jan-18 15:33N 47°15' W 122°23'2 2.3
2015-Jan-18 14:33N 47°17' W 122°25'2 1.8
2015-Jan-18 13:33N 47°16' W 122°23'3 2.7
2015-Jan-18 12:33N 47°18' W 122°26'0 0.1
2015-Jan-18 11:33N 47°18' W 122°26'0 0.0
2015-Jan-18 10:33N 47°18' W 122°26'0 0.0
2015-Jan-18 09:33N 47°18' W 122°26'0 0.0
2015-Jan-18 08:33N 47°18' W 122°26'0 0.0
2015-Jan-18 07:33N 47°18' W 122°26'0 0.0
2015-Jan-18 06:33N 47°18' W 122°26'2 2.1
2015-Jan-18 05:33N 47°16' W 122°24'1 1.1
2015-Jan-18 04:33N 47°17' W 122°25'1 0.9
2015-Jan-18 03:33N 47°18' W 122°26'0 0.0
2015-Jan-18 02:33N 47°18' W 122°26'2 2.3
2015-Jan-18 01:33N 47°16' W 122°24'1 0.7
2015-Jan-18 00:33N 47°15' W 122°23'2 2.1
2015-Jan-17 23:33N 47°15' W 122°26'0 0.0
2015-Jan-17 22:33N 47°15' W 122°26'0 0.0
2015-Jan-17 21:33N 47°15' W 122°26'0 0.0
2015-Jan-17 20:33N 47°15' W 122°26'0 0.0
2015-Jan-17 19:33N 47°15' W 122°26'0 0.0
2015-Jan-17 18:33N 47°15' W 122°26'0 0.0
2015-Jan-17 17:33N 47°15' W 122°26'6 5.7
2015-Jan-17 16:33N 47°21' W 122°25'9 8.9
2015-Jan-17 15:33N 47°30' W 122°24'1 9.9
2015-Jan-17 15:26N 47°31' W 122°24'5 5.8
2015-Jan-17 14:33N 47°35' W 122°21'0 2.2
2015-Jan-17 14:25N 47°35' W 122°21'1 1.2
2015-Jan-17 13:33N 47°36' W 122°21'0 4.3
2015-Jan-17 13:30N 47°36' W 122°21'1 1.6
2015-Jan-17 12:33N 47°35' W 122°21'0 0.0
2015-Jan-17 12:24N 47°35' W 122°21'0 0.0
2015-Jan-17 11:33N 47°35' W 122°21'0 0.0
2015-Jan-17 11:28N 47°35' W 122°21'0 0.0
2015-Jan-17 10:33N 47°35' W 122°21'0 0.0
2015-Jan-17 10:07N 47°35' W 122°21'0 0.0
2015-Jan-17 09:33N 47°35' W 122°21'0 0.0
2015-Jan-17 08:45N 47°35' W 122°21'0 0.0
2015-Jan-17 08:33N 47°35' W 122°21'0 0.0
2015-Jan-17 08:30N 47°35' W 122°21'0 0.1
2015-Jan-17 07:33N 47°35' W 122°21'0 3.0
2015-Jan-17 07:30N 47°35' W 122°21'2 3.8
2015-Jan-17 07:04N 47°37' W 122°21'0 0.6
2015-Jan-17 06:33N 47°36' W 122°21'5 4.7
2015-Jan-17 05:33N 47°33' W 122°25'1 9.5
2015-Jan-17 05:29N 47°32' W 122°25'910.1
2015-Jan-17 04:33N 47°23' W 122°21'1 8.6
2015-Jan-17 04:29N 47°23' W 122°21'8 8.7
2015-Jan-17 03:33N 47°15' W 122°26'0 0.4
2015-Jan-17 03:13N 47°15' W 122°26'0 0.0
2015-Jan-17 02:33N 47°15' W 122°26'0 0.0
2015-Jan-17 01:33N 47°15' W 122°26'0 0.0
2015-Jan-17 00:33N 47°15' W 122°26'0 0.0
2015-Jan-16 23:33N 47°15' W 122°26'0 0.0
2015-Jan-16 22:33N 47°15' W 122°26'0 0.0
2015-Jan-16 21:33N 47°15' W 122°26'0 0.0
2015-Jan-16 20:33N 47°15' W 122°26'0 0.0
2015-Jan-16 19:33N 47°15' W 122°26'0 0.0
2015-Jan-16 18:33N 47°15' W 122°26'0 0.0
2015-Jan-16 17:33N 47°15' W 122°26'1 1.1
2015-Jan-16 16:33N 47°16' W 122°25'2 1.6
2015-Jan-16 15:33N 47°18' W 122°26'3 3.2
2015-Jan-16 14:33N 47°15' W 122°23'1 1.4
2015-Jan-16 13:32N 47°16' W 122°24'0 3.3
2015-Jan-16 13:26N 47°16' W 122°24'0 0.1
2015-Jan-16 12:33N 47°16' W 122°25'1 1.4
2015-Jan-16 11:33N 47°18' W 122°26'0 0.0
2015-Jan-16 10:33N 47°18' W 122°26'0 0.0
2015-Jan-16 09:33N 47°18' W 122°26'0 0.0
2015-Jan-16 08:33N 47°18' W 122°26'0 0.0
2015-Jan-16 07:33N 47°18' W 122°26'0 0.0
2015-Jan-16 06:33N 47°18' W 122°26'0 0.0
2015-Jan-16 05:33N 47°18' W 122°26'1 0.8
2015-Jan-16 04:33N 47°17' W 122°25'1 0.9
2015-Jan-16 03:33N 47°18' W 122°26'1 0.9
2015-Jan-16 02:33N 47°17' W 122°25'2 1.7
2015-Jan-16 01:33N 47°16' W 122°23'0 0.2
2015-Jan-16 00:33N 47°16' W 122°23'2 1.9
2015-Jan-15 23:33N 47°17' W 122°25'1 0.5
2015-Jan-15 22:33N 47°17' W 122°25'1 1.2
2015-Jan-15 21:33N 47°16' W 122°23'2 1.9
2015-Jan-15 20:33N 47°15' W 122°26'0 0.0
2015-Jan-15 19:33N 47°15' W 122°26'0 0.0
2015-Jan-15 18:33N 47°15' W 122°26'0 0.0
2015-Jan-15 17:33N 47°15' W 122°26'0 0.0
2015-Jan-15 16:33N 47°15' W 122°26'0 0.0
2015-Jan-15 15:33N 47°15' W 122°26'0 0.0
2015-Jan-15 14:33N 47°15' W 122°26'1 1.2
2015-Jan-15 13:33N 47°16' W 122°26'  
Track history (hours):
 
Tides and Currents Weather Stations Pressure Air Temp Water Temp Dewpoint Dewpoint Depression Visibility Wind Speed Wind Dir Waves Ship Positions

Guide

Owner: CROWLEY MARINE SERVICES INC, SEATTLE, WA. More information available from US FCC via Universal Licensing System and Coast Guard Vessel Documentation Center.

Last reported at 2015-Jan-25 13:33 UTC. Time now 2015-Jan-25 14:23 UTC.
Position N 47°15' W 122°26'.

Length 34 m; draft 5.1 m.

Type: Tug. MMSI: 366759530.

Date/timePositionNaut miles runAvg speedWind from/ knotsBaromVisibWave heightAir tempDewpointWater temp
2015-Jan-25 13:33N 47°15' W 122°26'0 0.0
2015-Jan-25 12:33N 47°15' W 122°26'0 0.0
2015-Jan-25 11:33N 47°15' W 122°26'0 0.0
2015-Jan-25 10:33N 47°15' W 122°26'0 0.0
2015-Jan-25 09:33N 47°15' W 122°26'0 0.0
2015-Jan-25 08:33N 47°15' W 122°26'0 0.0
2015-Jan-25 07:33N 47°15' W 122°26'0 0.0
2015-Jan-25 06:33N 47°15' W 122°26'0 0.0
2015-Jan-25 05:31N 47°15' W 122°26'1 1.2
2015-Jan-25 04:33N 47°16' W 122°25'2 1.8
2015-Jan-25 03:33N 47°15' W 122°23'2 1.6
2015-Jan-25 02:33N 47°16' W 122°24'1 1.4
2015-Jan-25 01:33N 47°15' W 122°23'0 0.2
2015-Jan-25 00:33N 47°15' W 122°23'2 2.1
2015-Jan-24 23:32N 47°15' W 122°26'0 0.0
2015-Jan-24 22:33N 47°15' W 122°26'0 0.0
2015-Jan-24 21:33N 47°15' W 122°26'0 0.0
2015-Jan-24 20:33N 47°15' W 122°26'0 0.0
2015-Jan-24 19:33N 47°15' W 122°26'0 0.0
2015-Jan-24 18:33N 47°15' W 122°26'0 0.0
2015-Jan-24 17:33N 47°15' W 122°26'0 0.0
2015-Jan-24 16:33N 47°15' W 122°26'0 0.0
2015-Jan-24 15:33N 47°15' W 122°26'0 0.0
2015-Jan-24 14:33N 47°15' W 122°26'0 0.0
2015-Jan-24 13:33N 47°15' W 122°26'0 0.0
2015-Jan-24 12:33N 47°15' W 122°26'0 0.0
2015-Jan-24 11:33N 47°15' W 122°26'0 0.0
2015-Jan-24 10:33N 47°15' W 122°26'2 2.0
2015-Jan-24 09:32N 47°17' W 122°24'1 1.4
2015-Jan-24 08:33N 47°17' W 122°25'0 0.3
2015-Jan-24 07:33N 47°18' W 122°26'0 0.0
2015-Jan-24 06:33N 47°18' W 122°26'0 0.0
2015-Jan-24 05:33N 47°18' W 122°26'0 0.0
2015-Jan-24 04:31N 47°18' W 122°26'0 0.0
2015-Jan-24 03:33N 47°18' W 122°26'1 1.4
2015-Jan-24 02:33N 47°17' W 122°25'1 1.0
2015-Jan-24 01:33N 47°16' W 122°24'2 2.1
2015-Jan-24 00:33N 47°17' W 122°26'2 2.2
2015-Jan-23 23:33N 47°15' W 122°26'0 0.0
2015-Jan-23 22:33N 47°15' W 122°26'0 0.0
2015-Jan-23 21:33N 47°15' W 122°26'0 0.0
2015-Jan-23 20:33N 47°15' W 122°26'0 0.0
2015-Jan-23 19:33N 47°15' W 122°26'0 0.0
2015-Jan-23 18:33N 47°15' W 122°26'0 0.0
2015-Jan-23 17:33N 47°15' W 122°26'0 0.0
2015-Jan-23 16:33N 47°15' W 122°26'0 0.0
2015-Jan-23 15:33N 47°15' W 122°26'2 1.7
2015-Jan-23 14:31N 47°16' W 122°24'1 0.7
2015-Jan-23 13:33N 47°16' W 122°24'0 0.3
2015-Jan-23 12:32N 47°16' W 122°24'0 0.0
2015-Jan-23 11:28N 47°16' W 122°24'0 0.0
2015-Jan-23 10:27N 47°16' W 122°24'0 0.0
2015-Jan-23 09:33N 47°16' W 122°24'0 0.0
2015-Jan-23 08:33N 47°16' W 122°24'0 0.0
2015-Jan-23 07:30N 47°16' W 122°24'0 0.0
2015-Jan-23 06:17N 47°16' W 122°24'0 0.0
2015-Jan-23 05:24N 47°16' W 122°24'0 0.0
2015-Jan-23 03:33N 47°16' W 122°24'0 0.2
2015-Jan-23 02:33N 47°16' W 122°24'0 0.5
2015-Jan-23 01:33N 47°16' W 122°23'2 1.9
2015-Jan-23 00:33N 47°15' W 122°26'0 0.0
2015-Jan-22 23:33N 47°15' W 122°26'0 0.0
2015-Jan-22 22:33N 47°15' W 122°26'0 0.0
2015-Jan-22 21:33N 47°15' W 122°26'0 0.0
2015-Jan-22 20:33N 47°15' W 122°26'0 0.0
2015-Jan-22 19:33N 47°15' W 122°26'0 0.0
2015-Jan-22 18:33N 47°15' W 122°26'0 0.0
2015-Jan-22 17:33N 47°15' W 122°26'2 1.8
2015-Jan-22 16:33N 47°16' W 122°24'1 1.3
2015-Jan-22 15:33N 47°17' W 122°25'1 1.1
2015-Jan-22 14:33N 47°18' W 122°26'0 0.0
2015-Jan-22 13:33N 47°18' W 122°26'2 1.8
2015-Jan-22 12:33N 47°16' W 122°24'1 0.5
2015-Jan-22 11:33N 47°16' W 122°24'0 0.5
2015-Jan-22 10:33N 47°16' W 122°24'0 0.0
2015-Jan-22 09:32N 47°16' W 122°24'0 0.0
2015-Jan-22 08:33N 47°16' W 122°24'0 0.0
2015-Jan-22 07:17N 47°16' W 122°24'0 0.0
2015-Jan-22 06:29N 47°16' W 122°24'0 0.0
2015-Jan-22 05:28N 47°16' W 122°24'0 0.0
2015-Jan-22 04:33N 47°16' W 122°24'1 1.2
2015-Jan-22 03:33N 47°15' W 122°23'3 2.9
2015-Jan-22 02:33N 47°17' W 122°26'3 3.0
2015-Jan-22 01:33N 47°15' W 122°23'2 2.2
2015-Jan-22 00:33N 47°15' W 122°26'0 0.0
2015-Jan-21 23:33N 47°15' W 122°26'0 0.0
2015-Jan-21 22:50N 47°15' W 122°26'0 0.0
2015-Jan-21 22:46N 47°15' W 122°26'0 0.0
2015-Jan-21 22:33N 47°15' W 122°26'0 0.0
2015-Jan-21 21:33N 47°15' W 122°26'2 2.1
2015-Jan-21 20:33N 47°16' W 122°23'2 2.2
2015-Jan-21 19:33N 47°17' W 122°25'1 0.6
2015-Jan-21 18:33N 47°18' W 122°26'0 0.0
2015-Jan-21 17:33N 47°18' W 122°26'0 0.0
2015-Jan-21 16:33N 47°18' W 122°26'0 0.0
2015-Jan-21 15:33N 47°18' W 122°26'0 0.0
2015-Jan-21 14:33N 47°18' W 122°26'0 0.0
2015-Jan-21 13:33N 47°18' W 122°26'0 0.0
2015-Jan-21 12:53N 47°18' W 122°26'0 0.0
2015-Jan-21 12:33N 47°18' W 122°26'3 2.9
2015-Jan-21 11:33N 47°16' W 122°23'3 2.9
2015-Jan-21 10:33N 47°17' W 122°26'0 0.3
2015-Jan-21 09:33N 47°18' W 122°26'0 0.0
2015-Jan-21 08:33N 47°18' W 122°26'0 0.0
2015-Jan-21 07:33N 47°18' W 122°26'0 0.0
2015-Jan-21 07:27N 47°18' W 122°26'0 0.0
2015-Jan-21 06:33N 47°18' W 122°26'6 5.9
2015-Jan-21 05:33N 47°23' W 122°22'9 9.7
2015-Jan-21 04:40N 47°31' W 122°25'1 6.7
2015-Jan-21 04:33N 47°32' W 122°25'4 4.0
2015-Jan-21 03:33N 47°35' W 122°21'0 1.4
2015-Jan-21 03:18N 47°35' W 122°21'0 0.3
2015-Jan-21 02:33N 47°35' W 122°21'0 0.0
2015-Jan-21 02:28N 47°35' W 122°21'0 0.0
2015-Jan-21 01:33N 47°35' W 122°21'0 0.0
2015-Jan-21 01:33N 47°35' W 122°21'0 0.0
2015-Jan-21 00:33N 47°35' W 122°21'0 0.0
2015-Jan-21 00:32N 47°35' W 122°21'0 0.0
2015-Jan-20 23:33N 47°35' W 122°21'0 0.0
2015-Jan-20 23:32N 47°35' W 122°21'0 0.0
2015-Jan-20 22:33N 47°35' W 122°21'0 0.0
2015-Jan-20 22:33N 47°35' W 122°21'0 0.0
2015-Jan-20 21:33N 47°35' W 122°21'0 0.0
2015-Jan-20 21:06N 47°35' W 122°21'0 0.0
2015-Jan-20 20:33N 47°35' W 122°21'0 0.0
2015-Jan-20 20:31N 47°35' W 122°21'0 0.0
2015-Jan-20 19:33N 47°35' W 122°21'0 0.0
2015-Jan-20 19:31N 47°35' W 122°21'0 0.0
2015-Jan-20 18:33N 47°35' W 122°21'0 0.0
2015-Jan-20 18:31N 47°35' W 122°21'0 0.0
2015-Jan-20 17:33N 47°35' W 122°21'0 0.0
2015-Jan-20 17:30N 47°35' W 122°21'0 0.0
2015-Jan-20 16:33N 47°35' W 122°21'0 0.0
2015-Jan-20 16:31N 47°35' W 122°21'0 0.0
2015-Jan-20 15:33N 47°35' W 122°21'0 0.0
2015-Jan-20 15:30N 47°35' W 122°21'0 0.0
2015-Jan-20 14:33N 47°35' W 122°21'0 0.0
2015-Jan-20 14:30N 47°35' W 122°21'0 0.0
2015-Jan-20 13:33N 47°35' W 122°21'0 0.0
2015-Jan-20 13:14N 47°35' W 122°21'0 0.0
2015-Jan-20 12:33N 47°35' W 122°21'0 0.0
2015-Jan-20 12:30N 47°35' W 122°21'0 0.0
2015-Jan-20 11:33N 47°35' W 122°21'0 0.0
2015-Jan-20 11:29N 47°35' W 122°21'0 0.0
2015-Jan-20 10:33N 47°35' W 122°21'0 0.0
2015-Jan-20 10:07N 47°35' W 122°21'0 0.0
2015-Jan-20 09:33N 47°35' W 122°21'0 0.0
2015-Jan-20 09:32N 47°35' W 122°21'0 0.0
2015-Jan-20 08:33N 47°35' W 122°21'0 0.0
2015-Jan-20 08:32N 47°35' W 122°21'0 0.0
2015-Jan-20 07:33N 47°35' W 122°21'0 0.0
2015-Jan-20 07:32N 47°35' W 122°21'0 0.0
2015-Jan-20 06:52N 47°35' W 122°21'0 0.0
2015-Jan-20 06:33N 47°35' W 122°21'0 0.0
2015-Jan-20 05:33N 47°35' W 122°21'0 0.0
2015-Jan-20 05:32N 47°35' W 122°21'0 0.0
2015-Jan-20 04:33N 47°35' W 122°21'0 0.0
2015-Jan-20 04:11N 47°35' W 122°21'0 0.0
2015-Jan-20 03:33N 47°35' W 122°21'0 0.0
2015-Jan-20 03:31N 47°35' W 122°21'0 0.0
2015-Jan-20 02:33N 47°35' W 122°21'0 0.0
2015-Jan-20 02:31N 47°35' W 122°21'2 2.2
2015-Jan-20 01:33N 47°37' W 122°22'0 0.0
2015-Jan-20 01:30N 47°37' W 122°22'1 1.5
2015-Jan-20 00:34N 47°36' W 122°22'0 0.5
2015-Jan-20 00:31N 47°36' W 122°22'0 0.1
2015-Jan-19 23:33N 47°36' W 122°22'0 2.9
2015-Jan-19 23:30N 47°36' W 122°23'8 8.0
2015-Jan-19 22:33N 47°29' W 122°24'8 8.6
2015-Jan-19 21:35N 47°20' W 122°25'010.1
2015-Jan-19 21:33N 47°20' W 122°26'5 4.8
2015-Jan-19 20:33N 47°15' W 122°26'0 0.0
2015-Jan-19 19:33N 47°15' W 122°26'0 0.0
2015-Jan-19 18:33N 47°15' W 122°26'0 0.0
2015-Jan-19 17:33N 47°15' W 122°26'0 0.0
2015-Jan-19 16:33N 47°15' W 122°26'0 0.0
2015-Jan-19 15:33N 47°15' W 122°26'0 0.0
2015-Jan-19 14:33N 47°15' W 122°26'0 0.0
2015-Jan-19 13:33N 47°15' W 122°26'0 0.0
2015-Jan-19 12:33N 47°15' W 122°26'0 0.0
2015-Jan-19 11:33N 47°15' W 122°26'0 0.0
2015-Jan-19 10:33N 47°15' W 122°26'0 0.0
2015-Jan-19 09:33N 47°15' W 122°26'0 0.0
2015-Jan-19 08:33N 47°15' W 122°26'0 0.0
2015-Jan-19 07:33N 47°15' W 122°26'0 0.0
2015-Jan-19 06:33N 47°15' W 122°26'0 0.0
2015-Jan-19 05:33N 47°15' W 122°26'0 0.0
2015-Jan-19 04:33N 47°15' W 122°26'0 0.0
2015-Jan-19 03:33N 47°15' W 122°26'0 0.0
2015-Jan-19 02:33N 47°15' W 122°26'0 0.0
2015-Jan-19 01:33N 47°15' W 122°26'2 1.7
2015-Jan-19 00:39N 47°17' W 122°25'1 5.5
2015-Jan-19 00:33N 47°17' W 122°25'0 0.4
2015-Jan-18 23:32N 47°16' W 122°24'0 0.1
2015-Jan-18 22:33N 47°16' W 122°24'0 0.0
2015-Jan-18 21:33N 47°16' W 122°24'0 0.0
2015-Jan-18 20:33N 47°16' W 122°24'0 0.0
2015-Jan-18 19:33N 47°16' W 122°24'0 0.0
2015-Jan-18 18:32N 47°16' W 122°24'0 0.0
2015-Jan-18 17:30N 47°16' W 122°24'0 0.0
2015-Jan-18 16:33N 47°16' W 122°24'1 1.4
2015-Jan-18 15:33N 47°15' W 122°23'2 2.3
2015-Jan-18 14:33N 47°17' W 122°25'2 1.8
2015-Jan-18 13:33N 47°16' W 122°23'3 2.7
2015-Jan-18 12:33N 47°18' W 122°26'0 0.1
2015-Jan-18 11:33N 47°18' W 122°26'0 0.0
2015-Jan-18 10:33N 47°18' W 122°26'0 0.0
2015-Jan-18 09:33N 47°18' W 122°26'0 0.0
2015-Jan-18 08:33N 47°18' W 122°26'0 0.0
2015-Jan-18 07:33N 47°18' W 122°26'0 0.0
2015-Jan-18 06:33N 47°18' W 122°26'2 2.1
2015-Jan-18 05:33N 47°16' W 122°24'1 1.1
2015-Jan-18 04:33N 47°17' W 122°25'1 0.9
2015-Jan-18 03:33N 47°18' W 122°26'0 0.0
2015-Jan-18 02:33N 47°18' W 122°26'2 2.3
2015-Jan-18 01:33N 47°16' W 122°24'1 0.7
2015-Jan-18 00:33N 47°15' W 122°23'2 2.1
2015-Jan-17 23:33N 47°15' W 122°26'0 0.0
2015-Jan-17 22:33N 47°15' W 122°26'0 0.0
2015-Jan-17 21:33N 47°15' W 122°26'0 0.0
2015-Jan-17 20:33N 47°15' W 122°26'0 0.0
2015-Jan-17 19:33N 47°15' W 122°26'0 0.0
2015-Jan-17 18:33N 47°15' W 122°26'0 0.0
2015-Jan-17 17:33N 47°15' W 122°26'6 5.7
2015-Jan-17 16:33N 47°21' W 122°25'9 8.9
2015-Jan-17 15:33N 47°30' W 122°24'1 9.9
2015-Jan-17 15:26N 47°31' W 122°24'5 5.8
2015-Jan-17 14:33N 47°35' W 122°21'0 2.2
2015-Jan-17 14:25N 47°35' W 122°21'1 1.2
2015-Jan-17 13:33N 47°36' W 122°21'0 4.3
2015-Jan-17 13:30N 47°36' W 122°21'1 1.6
2015-Jan-17 12:33N 47°35' W 122°21'0 0.0
2015-Jan-17 12:24N 47°35' W 122°21'0 0.0
2015-Jan-17 11:33N 47°35' W 122°21'0 0.0
2015-Jan-17 11:28N 47°35' W 122°21'0 0.0
2015-Jan-17 10:33N 47°35' W 122°21'0 0.0
2015-Jan-17 10:07N 47°35' W 122°21'0 0.0
2015-Jan-17 09:33N 47°35' W 122°21'0 0.0
2015-Jan-17 08:45N 47°35' W 122°21'0 0.0
2015-Jan-17 08:33N 47°35' W 122°21'0 0.0
2015-Jan-17 08:30N 47°35' W 122°21'0 0.1
2015-Jan-17 07:33N 47°35' W 122°21'0 3.0
2015-Jan-17 07:30N 47°35' W 122°21'2 3.8
2015-Jan-17 07:04N 47°37' W 122°21'0 0.6
2015-Jan-17 06:33N 47°36' W 122°21'5 4.7
2015-Jan-17 05:33N 47°33' W 122°25'1 9.5
2015-Jan-17 05:29N 47°32' W 122°25'910.1
2015-Jan-17 04:33N 47°23' W 122°21'1 8.6
2015-Jan-17 04:29N 47°23' W 122°21'8 8.7
2015-Jan-17 03:33N 47°15' W 122°26'0 0.4
2015-Jan-17 03:13N 47°15' W 122°26'0 0.0
2015-Jan-17 02:33N 47°15' W 122°26'0 0.0
2015-Jan-17 01:33N 47°15' W 122°26'0 0.0
2015-Jan-17 00:33N 47°15' W 122°26'0 0.0
2015-Jan-16 23:33N 47°15' W 122°26'0 0.0
2015-Jan-16 22:33N 47°15' W 122°26'0 0.0
2015-Jan-16 21:33N 47°15' W 122°26'0 0.0
2015-Jan-16 20:33N 47°15' W 122°26'0 0.0
2015-Jan-16 19:33N 47°15' W 122°26'0 0.0
2015-Jan-16 18:33N 47°15' W 122°26'0 0.0
2015-Jan-16 17:33N 47°15' W 122°26'1 1.1
2015-Jan-16 16:33N 47°16' W 122°25'2 1.6
2015-Jan-16 15:33N 47°18' W 122°26'3 3.2
2015-Jan-16 14:33N 47°15' W 122°23'1 1.4
2015-Jan-16 13:32N 47°16' W 122°24'0 3.3
2015-Jan-16 13:26N 47°16' W 122°24'0 0.1
2015-Jan-16 12:33N 47°16' W 122°25'1 1.4
2015-Jan-16 11:33N 47°18' W 122°26'0 0.0
2015-Jan-16 10:33N 47°18' W 122°26'0 0.0
2015-Jan-16 09:33N 47°18' W 122°26'0 0.0
2015-Jan-16 08:33N 47°18' W 122°26'0 0.0
2015-Jan-16 07:33N 47°18' W 122°26'0 0.0
2015-Jan-16 06:33N 47°18' W 122°26'0 0.0
2015-Jan-16 05:33N 47°18' W 122°26'1 0.8
2015-Jan-16 04:33N 47°17' W 122°25'1 0.9
2015-Jan-16 03:33N 47°18' W 122°26'1 0.9
2015-Jan-16 02:33N 47°17' W 122°25'2 1.7
2015-Jan-16 01:33N 47°16' W 122°23'0 0.2
2015-Jan-16 00:33N 47°16' W 122°23'2 1.9
2015-Jan-15 23:33N 47°17' W 122°25'1 0.5
2015-Jan-15 22:33N 47°17' W 122°25'1 1.2
2015-Jan-15 21:33N 47°16' W 122°23'2 1.9
2015-Jan-15 20:33N 47°15' W 122°26'0 0.0
2015-Jan-15 19:33N 47°15' W 122°26'0 0.0
2015-Jan-15 18:33N 47°15' W 122°26'0 0.0
2015-Jan-15 17:33N 47°15' W 122°26'0 0.0
2015-Jan-15 16:33N 47°15' W 122°26'0 0.0
2015-Jan-15 15:33N 47°15' W 122°26'0 0.0
2015-Jan-15 14:33N 47°15' W 122°26'1 1.2
2015-Jan-15 13:33N 47°16' W 122°26'  

Dump ship's entire track history